createdAt,value
2023-01-18T00:00:20.300Z,99118.41
2023-01-18T00:02:49.224Z,99116.47
2023-01-18T00:05:17.198Z,99115.16
2023-01-18T00:07:46.396Z,99123.28
2023-01-18T00:10:14.125Z,99121.56
2023-01-18T00:12:41.838Z,99116.06
2023-01-18T00:15:11.062Z,99121.13
2023-01-18T00:17:47.697Z,99119.41
2023-01-18T00:20:15.890Z,99114.34
2023-01-18T00:22:43.895Z,99117.34
2023-01-18T00:25:13.348Z,99118.88
2023-01-18T00:27:45.450Z,99115.16
2023-01-18T00:30:14.781Z,99126.34
2023-01-18T00:32:42.556Z,99122.88
2023-01-18T00:35:10.941Z,99121.28
2023-01-18T00:37:38.945Z,99121.63
2023-01-18T00:40:08.081Z,99122.56
2023-01-18T00:42:55.021Z,99125.94
2023-01-18T00:45:23.034Z,99116.03
2023-01-18T00:47:50.727Z,99120.31
2023-01-18T00:50:19.561Z,99119.31
2023-01-18T00:52:47.688Z,99120.38
2023-01-18T00:55:16.457Z,99120.16
2023-01-18T00:57:45.597Z,99126.44
2023-01-18T01:00:16.809Z,99140.19
2023-01-18T01:02:44.646Z,99129.63
2023-01-18T01:05:35.947Z,99134.75
2023-01-18T01:08:05.822Z,99133.06
2023-01-18T01:10:33.696Z,99138.97
2023-01-18T01:13:20.205Z,99129.97
2023-01-18T01:16:05.497Z,99140.19
2023-01-18T01:18:50.673Z,99139.25
2023-01-18T01:21:35.915Z,99146.22
2023-01-18T01:24:21.175Z,99156.97
2023-01-18T01:26:48.966Z,99154.06
2023-01-18T01:29:18.313Z,99161.28
2023-01-18T01:31:46.046Z,99160.75
2023-01-18T01:34:14.214Z,99159.03
2023-01-18T01:36:42.040Z,99162.00
2023-01-18T01:39:11.014Z,99170.84
2023-01-18T01:41:39.284Z,99182.03
2023-01-18T01:44:40.352Z,99178.31
2023-01-18T01:47:14.343Z,99182.53
2023-01-18T01:49:45.972Z,99189.38
2023-01-18T01:52:17.600Z,99190.50
2023-01-18T01:54:50.602Z,99191.63
2023-01-18T01:57:21.672Z,99198.28
2023-01-18T01:59:55.031Z,99205.66
2023-01-18T02:02:24.263Z,99209.94
2023-01-18T02:04:55.172Z,99217.34
2023-01-18T02:07:26.291Z,99221.84
2023-01-18T02:09:55.306Z,99234.88
2023-01-18T02:12:23.318Z,99233.56
2023-01-18T02:14:51.125Z,99241.75
2023-01-18T02:17:36.897Z,99235.34
2023-01-18T02:20:45.747Z,99235.34
2023-01-18T02:23:35.479Z,99234.69
2023-01-18T02:26:42.477Z,99240.00
2023-01-18T02:29:17.425Z,99236.84
2023-01-18T02:31:57.924Z,99248.75
2023-01-18T02:34:34.744Z,99249.78
2023-01-18T02:37:08.277Z,99250.72
2023-01-18T02:39:41.133Z,99242.75
2023-01-18T02:42:36.470Z,99246.06
2023-01-18T02:45:28.935Z,99251.72
2023-01-18T02:47:56.682Z,99250.66
2023-01-18T02:50:27.700Z,99257.41
2023-01-18T02:52:55.655Z,99262.69
2023-01-18T02:55:32.596Z,99264.94
2023-01-18T02:58:06.552Z,99263.84
2023-01-18T03:00:38.922Z,99279.56
2023-01-18T03:03:10.875Z,99292.63
2023-01-18T03:05:40.949Z,99294.63
2023-01-18T03:08:15.091Z,99279.97
2023-01-18T03:10:57.167Z,99292.19
2023-01-18T03:13:32.487Z,99290.09
2023-01-18T03:16:08.919Z,99299.09
2023-01-18T03:19:00.240Z,99298.69
2023-01-18T03:21:37.798Z,99304.44
2023-01-18T03:24:07.472Z,99309.53
2023-01-18T03:26:41.224Z,99303.41
2023-01-18T03:29:26.406Z,99307.06
2023-01-18T03:32:19.837Z,99311.34
2023-01-18T03:34:52.720Z,99310.31
2023-01-18T03:37:24.845Z,99311.88
2023-01-18T03:39:57.742Z,99327.25
2023-01-18T03:42:28.829Z,99330.72
2023-01-18T03:45:04.126Z,99332.72
2023-01-18T03:47:33.841Z,99338.22
2023-01-18T03:50:02.072Z,99349.50
2023-01-18T03:52:37.996Z,99354.28
2023-01-18T03:55:10.904Z,99353.81
2023-01-18T03:57:45.501Z,99351.28
2023-01-18T04:00:15.117Z,99353.88
2023-01-18T04:02:46.919Z,99355.72
2023-01-18T04:05:15.433Z,99349.44
2023-01-18T04:07:43.237Z,99364.34
2023-01-18T04:10:12.746Z,99363.28
2023-01-18T04:12:40.460Z,99372.63
2023-01-18T04:15:09.146Z,99371.06
2023-01-18T04:17:36.951Z,99366.34
2023-01-18T04:20:07.656Z,99373.41
2023-01-18T04:22:35.422Z,99370.06
2023-01-18T04:25:03.229Z,99368.19
2023-01-18T04:27:31.027Z,99360.81
2023-01-18T04:29:59.434Z,99365.28
2023-01-18T04:32:28.848Z,99376.09
2023-01-18T04:34:56.574Z,99374.06
2023-01-18T04:37:30.326Z,99375.75
2023-01-18T04:39:58.223Z,99378.81
2023-01-18T04:42:26.127Z,99372.53
2023-01-18T04:44:54.165Z,99383.38
2023-01-18T04:47:21.860Z,99386.81
2023-01-18T04:49:49.640Z,99389.84
2023-01-18T04:52:19.087Z,99391.63
2023-01-18T04:54:48.427Z,99379.72
2023-01-18T04:57:16.297Z,99384.41
2023-01-18T04:59:46.010Z,99387.28
2023-01-18T05:02:15.134Z,99392.47
2023-01-18T05:04:43.717Z,99400.00
2023-01-18T05:07:11.984Z,99399.72
2023-01-18T05:09:39.679Z,99414.22
2023-01-18T05:12:09.113Z,99411.13
2023-01-18T05:14:36.948Z,99412.13
2023-01-18T05:17:04.765Z,99415.66
2023-01-18T05:19:32.520Z,99414.63
2023-01-18T05:22:00.292Z,99415.72
2023-01-18T05:24:29.862Z,99422.47
2023-01-18T05:26:57.997Z,99426.22
2023-01-18T05:29:27.251Z,99431.94
2023-01-18T05:31:55.051Z,99430.94
2023-01-18T05:34:22.871Z,99436.59
2023-01-18T05:36:50.607Z,99434.69
2023-01-18T05:39:18.468Z,99434.75
2023-01-18T05:41:46.163Z,99434.19
2023-01-18T05:44:14.168Z,99436.38
2023-01-18T05:46:43.396Z,99442.28
2023-01-18T05:49:11.148Z,99452.72
2023-01-18T05:51:39.080Z,99465.97
2023-01-18T05:54:06.881Z,99472.78
2023-01-18T05:56:35.340Z,99473.06
2023-01-18T05:59:03.126Z,99475.41
2023-01-18T06:01:31.010Z,99486.47
2023-01-18T06:04:00.167Z,99479.88
2023-01-18T06:06:27.879Z,99477.34
2023-01-18T06:08:55.609Z,99473.56
2023-01-18T06:11:23.503Z,99477.16
2023-01-18T06:13:51.339Z,99484.84
2023-01-18T06:16:19.147Z,99483.06
2023-01-18T06:18:46.914Z,99483.50
2023-01-18T06:21:16.143Z,99472.22
2023-01-18T06:23:43.863Z,99470.72
2023-01-18T06:26:11.677Z,99465.22
2023-01-18T06:28:39.432Z,99472.31
2023-01-18T06:31:08.466Z,99485.81
2023-01-18T06:33:36.754Z,99492.69
2023-01-18T06:36:05.870Z,99503.97
2023-01-18T06:38:35.036Z,99509.75
2023-01-18T06:41:02.822Z,99501.34
2023-01-18T06:43:30.522Z,99504.06
2023-01-18T06:45:58.889Z,99510.00
2023-01-18T06:48:27.945Z,99512.69
2023-01-18T06:50:57.833Z,99518.19
2023-01-18T06:53:26.276Z,99511.38
2023-01-18T06:55:56.949Z,99509.41
2023-01-18T06:58:25.760Z,99500.69
2023-01-18T07:00:55.964Z,99498.13
2023-01-18T07:03:23.951Z,99493.31
2023-01-18T07:05:54.082Z,99509.09
2023-01-18T07:08:22.060Z,99512.44
2023-01-18T07:10:50.359Z,99517.06
2023-01-18T07:13:20.028Z,99511.47
2023-01-18T07:15:54.091Z,99502.81
2023-01-18T07:18:22.970Z,99501.81
2023-01-18T07:20:57.463Z,99521.16
2023-01-18T07:23:25.544Z,99512.69
2023-01-18T07:26:00.146Z,99521.66
2023-01-18T07:28:29.290Z,99532.88
2023-01-18T07:30:57.402Z,99550.63
2023-01-18T07:33:25.199Z,99550.06
2023-01-18T07:35:54.204Z,99553.06
2023-01-18T07:38:22.930Z,99563.09
2023-01-18T07:40:50.988Z,99569.97
2023-01-18T07:43:19.307Z,99567.38
2023-01-18T07:45:54.556Z,99569.66
2023-01-18T07:48:23.473Z,99572.00
2023-01-18T07:50:55.976Z,99586.53
2023-01-18T07:53:24.558Z,99586.91
2023-01-18T07:55:52.970Z,99587.28
2023-01-18T07:58:21.145Z,99593.97
2023-01-18T08:00:50.316Z,99598.00
2023-01-18T08:03:19.822Z,99617.91
2023-01-18T08:05:48.264Z,99608.72
2023-01-18T08:08:18.088Z,99624.94
2023-01-18T08:10:46.430Z,99636.59
2023-01-18T08:13:14.267Z,99641.22
2023-01-18T08:15:42.021Z,99640.13
2023-01-18T08:18:11.864Z,99640.59
2023-01-18T08:20:40.688Z,99637.75
2023-01-18T08:23:08.442Z,99641.41
2023-01-18T08:25:36.557Z,99648.66
2023-01-18T08:28:05.365Z,99656.19
2023-01-18T08:30:35.264Z,99651.97
2023-01-18T08:33:04.509Z,99649.34
2023-01-18T08:35:36.668Z,99654.84
2023-01-18T08:38:04.532Z,99657.31
2023-01-18T08:40:32.731Z,99663.19
2023-01-18T08:43:02.328Z,99669.75
2023-01-18T08:45:30.399Z,99663.59
2023-01-18T08:47:58.905Z,99668.44
2023-01-18T08:50:26.779Z,99668.34
2023-01-18T08:52:57.192Z,99668.78
2023-01-18T08:55:25.126Z,99660.63
2023-01-18T08:57:55.040Z,99663.69
2023-01-18T09:00:26.786Z,99667.00
2023-01-18T09:02:55.012Z,99663.56
2023-01-18T09:05:22.908Z,99666.13
2023-01-18T09:07:50.921Z,99672.78
2023-01-18T09:10:21.278Z,99670.69
2023-01-18T09:12:49.186Z,99681.97
2023-01-18T09:15:18.149Z,99676.16
2023-01-18T09:17:46.369Z,99672.88
2023-01-18T09:20:14.593Z,99676.38
2023-01-18T09:22:45.459Z,99680.03
2023-01-18T09:25:13.383Z,99682.44
2023-01-18T09:27:42.517Z,99689.94
2023-01-18T09:30:11.531Z,99704.44
2023-01-18T09:32:41.161Z,99699.03
2023-01-18T09:35:10.941Z,99707.91
2023-01-18T09:37:38.679Z,99721.28
2023-01-18T09:40:07.561Z,99727.69
2023-01-18T09:42:39.042Z,99717.88
2023-01-18T09:45:27.418Z,99720.44
2023-01-18T09:48:02.874Z,99731.88
2023-01-18T09:50:33.662Z,99736.78
2023-01-18T09:53:11.198Z,99745.59
2023-01-18T09:55:49.255Z,99749.94
2023-01-18T09:58:35.304Z,99745.84
2023-01-18T10:01:09.143Z,99748.06
2023-01-18T10:03:47.935Z,99755.31
2023-01-18T10:06:20.897Z,99757.94
2023-01-18T10:08:56.007Z,99766.78
2023-01-18T10:11:31.248Z,99766.34
2023-01-18T10:14:06.198Z,99776.28
2023-01-18T10:16:37.800Z,99770.81
2023-01-18T10:19:16.368Z,99765.78
2023-01-18T10:21:53.632Z,99768.38
2023-01-18T10:24:43.125Z,99771.03
2023-01-18T10:27:24.522Z,99781.22
2023-01-18T10:30:04.945Z,99782.16
2023-01-18T10:32:38.154Z,99777.50
2023-01-18T10:35:16.385Z,99791.94
2023-01-18T10:37:46.683Z,99801.44
2023-01-18T10:40:15.942Z,99798.25
2023-01-18T10:42:47.339Z,99795.91
2023-01-18T10:45:21.551Z,99804.66
2023-01-18T10:47:52.024Z,99817.06
2023-01-18T10:50:22.560Z,99818.91
2023-01-18T10:52:50.661Z,99839.25
2023-01-18T10:55:20.406Z,99835.72
2023-01-18T10:57:50.334Z,99818.34
2023-01-18T11:00:24.039Z,99814.16
2023-01-18T11:02:55.846Z,99821.09
2023-01-18T11:05:30.151Z,99817.47
2023-01-18T11:08:21.614Z,99829.78
2023-01-18T11:10:59.667Z,99838.13
2023-01-18T11:13:31.352Z,99838.88
2023-01-18T11:16:10.448Z,99834.69
2023-01-18T11:18:40.430Z,99830.97
2023-01-18T11:21:12.169Z,99838.53
2023-01-18T11:23:43.695Z,99837.06
2023-01-18T11:26:15.433Z,99834.88
2023-01-18T11:28:49.575Z,99832.44
2023-01-18T11:31:22.280Z,99833.63
2023-01-18T11:33:54.727Z,99841.19
2023-01-18T11:36:35.388Z,99849.50
2023-01-18T11:39:26.123Z,99853.78
2023-01-18T11:42:11.905Z,99858.63
2023-01-18T11:44:44.566Z,99859.00
2023-01-18T11:47:22.677Z,99861.41
2023-01-18T11:49:58.343Z,99858.16
2023-01-18T11:52:38.233Z,99870.94
2023-01-18T11:55:15.864Z,99851.09
2023-01-18T11:57:44.968Z,99861.28
2023-01-18T12:00:15.243Z,99861.81
2023-01-18T12:03:24.578Z,99863.28
2023-01-18T12:05:56.493Z,99865.44
2023-01-18T12:08:50.206Z,99874.31
2023-01-18T12:11:31.687Z,99870.22
2023-01-18T12:14:03.408Z,99866.00
2023-01-18T12:16:51.956Z,99876.03
2023-01-18T12:19:53.918Z,99872.47
2023-01-18T12:23:02.906Z,99871.47
2023-01-18T12:25:47.435Z,99874.13
2023-01-18T12:28:28.800Z,99869.97
2023-01-18T12:31:10.592Z,99875.19
2023-01-18T12:33:49.819Z,99867.66
2023-01-18T12:36:33.860Z,99857.56
2023-01-18T12:39:13.363Z,99865.91
2023-01-18T12:41:50.394Z,99864.88
2023-01-18T12:44:52.454Z,99860.16
2023-01-18T12:47:36.015Z,99856.16
2023-01-18T12:50:13.896Z,99853.47
2023-01-18T12:52:49.923Z,99857.84
2023-01-18T12:55:22.657Z,99856.50
2023-01-18T12:57:58.724Z,99863.75
2023-01-18T13:00:35.302Z,99859.47
2023-01-18T13:03:10.913Z,99856.25
2023-01-18T13:05:51.044Z,99851.66
2023-01-18T13:08:25.251Z,99856.00
2023-01-18T13:10:56.806Z,99859.97
2023-01-18T13:13:29.305Z,99860.28
2023-01-18T13:16:03.577Z,99861.31
2023-01-18T13:18:37.891Z,99859.63
2023-01-18T13:21:12.649Z,99856.91
2023-01-18T13:23:53.795Z,99856.31
2023-01-18T13:26:29.430Z,99843.09
2023-01-18T13:29:17.817Z,99841.22
2023-01-18T13:31:46.125Z,99848.38
2023-01-18T13:34:25.829Z,99856.78
2023-01-18T13:37:02.533Z,99845.78
2023-01-18T13:39:47.153Z,99851.75
2023-01-18T13:42:36.917Z,99864.09
2023-01-18T13:45:17.057Z,99874.78
2023-01-18T13:47:53.818Z,99864.84
2023-01-18T13:50:49.021Z,99839.16
2023-01-18T13:53:49.318Z,99824.34
2023-01-18T13:56:25.544Z,99839.16
2023-01-18T13:58:56.462Z,99836.00
2023-01-18T14:01:28.316Z,99844.88
2023-01-18T14:03:56.579Z,99841.53
2023-01-18T14:06:32.427Z,99858.59
2023-01-18T14:09:05.864Z,99859.50
2023-01-18T14:11:37.658Z,99861.91
2023-01-18T14:14:22.846Z,99880.06
2023-01-18T14:17:07.413Z,99891.97
2023-01-18T14:19:57.449Z,99904.69
2023-01-18T14:22:40.271Z,99931.72
2023-01-18T14:25:29.582Z,99947.44
2023-01-18T14:28:05.801Z,99973.06
2023-01-18T14:30:36.438Z,99955.16
2023-01-18T14:33:12.530Z,99961.59
2023-01-18T14:35:40.432Z,99948.97
2023-01-18T14:38:17.826Z,99921.75
2023-01-18T14:40:48.531Z,99900.69
2023-01-18T14:43:19.710Z,99887.56
2023-01-18T14:45:55.216Z,99912.78
2023-01-18T14:48:26.221Z,99928.75
2023-01-18T14:50:56.650Z,99919.78
2023-01-18T14:53:29.033Z,99920.31
2023-01-18T14:56:09.041Z,99905.41
2023-01-18T14:58:39.555Z,99902.91
2023-01-18T15:01:09.555Z,99913.78
2023-01-18T15:03:39.795Z,99932.19
2023-01-18T15:06:13.882Z,99956.53
2023-01-18T15:08:43.799Z,99975.91
2023-01-18T15:11:13.132Z,99979.38
2023-01-18T15:13:49.179Z,99974.72
2023-01-18T15:16:19.024Z,99977.22
2023-01-18T15:18:50.759Z,99958.69
2023-01-18T15:21:23.208Z,99965.38
2023-01-18T15:23:54.003Z,99944.25
2023-01-18T15:26:35.360Z,99959.22
2023-01-18T15:29:09.517Z,99961.47
2023-01-18T15:31:45.762Z,99950.00
2023-01-18T15:34:16.774Z,99952.41
2023-01-18T15:36:45.736Z,99949.06
2023-01-18T15:39:14.198Z,99942.75
2023-01-18T15:41:43.655Z,99941.41
2023-01-18T15:44:35.919Z,99944.72
2023-01-18T15:47:15.544Z,99958.97
2023-01-18T15:49:46.823Z,99965.13
2023-01-18T15:52:15.126Z,99974.78
2023-01-18T15:54:43.758Z,99972.97
2023-01-18T15:57:14.043Z,99975.53
2023-01-18T15:59:43.267Z,99984.00
2023-01-18T16:02:18.870Z,99973.34
2023-01-18T16:04:48.163Z,99984.06
2023-01-18T16:07:35.768Z,99989.19
2023-01-18T16:10:15.306Z,99981.25
2023-01-18T16:12:43.385Z,99989.53
2023-01-18T16:15:25.690Z,99989.84
2023-01-18T16:17:58.513Z,99983.44
2023-01-18T16:20:29.648Z,99985.56
2023-01-18T16:23:06.899Z,99989.22
2023-01-18T16:25:35.072Z,100000.78
2023-01-18T16:28:04.115Z,99996.84
2023-01-18T16:30:35.819Z,99993.38
2023-01-18T16:33:10.709Z,99997.75
2023-01-18T16:35:41.840Z,100001.28
2023-01-18T16:38:12.304Z,99997.16
2023-01-18T16:40:43.921Z,99996.75
2023-01-18T16:43:23.121Z,100001.41
2023-01-18T16:45:52.877Z,99999.84
2023-01-18T16:48:22.898Z,100004.91
2023-01-18T16:50:52.702Z,100007.44
2023-01-18T16:53:20.861Z,100015.88
2023-01-18T16:55:48.823Z,100024.22
2023-01-18T16:58:18.289Z,100026.53
2023-01-18T17:00:53.023Z,100022.94
2023-01-18T17:03:20.877Z,100021.78
2023-01-18T17:05:48.558Z,100027.88
2023-01-18T17:08:18.180Z,100033.13
2023-01-18T17:10:47.355Z,100031.72
2023-01-18T17:13:15.546Z,100043.50
2023-01-18T17:15:45.412Z,100048.13
2023-01-18T17:18:15.917Z,100054.94
2023-01-18T17:20:44.219Z,100062.97
2023-01-18T17:23:12.090Z,100067.44
2023-01-18T17:25:41.349Z,100060.13
2023-01-18T17:28:09.742Z,100054.31
2023-01-18T17:30:37.976Z,100059.66
2023-01-18T17:33:05.777Z,100059.38
2023-01-18T17:35:33.867Z,100061.53
2023-01-18T17:38:11.316Z,100071.06
2023-01-18T17:40:44.022Z,100092.66
2023-01-18T17:43:15.148Z,100089.31
2023-01-18T17:45:50.983Z,100086.75
2023-01-18T17:48:26.204Z,100102.78
2023-01-18T17:50:53.969Z,100101.88
2023-01-18T17:53:21.659Z,100104.56
2023-01-18T17:55:50.759Z,100108.03
2023-01-18T17:58:18.459Z,100101.97
2023-01-18T18:00:46.325Z,100102.19
2023-01-18T18:03:14.292Z,100099.78
2023-01-18T18:05:42.282Z,100097.22
2023-01-18T18:08:10.321Z,100107.03
2023-01-18T18:10:38.068Z,100116.81
2023-01-18T18:13:07.290Z,100121.97
2023-01-18T18:15:35.163Z,100127.06
2023-01-18T18:18:04.085Z,100130.22
2023-01-18T18:20:33.224Z,100137.34
2023-01-18T18:23:01.298Z,100137.53
2023-01-18T18:25:29.507Z,100140.41
2023-01-18T18:27:57.288Z,100148.16
2023-01-18T18:30:26.453Z,100149.94
2023-01-18T18:32:54.170Z,100157.09
2023-01-18T18:35:25.859Z,100155.69
2023-01-18T18:37:55.447Z,100158.66
2023-01-18T18:40:23.495Z,100155.59
2023-01-18T18:43:06.809Z,100172.97
2023-01-18T18:45:36.166Z,100181.78
2023-01-18T18:48:04.143Z,100200.03
2023-01-18T18:50:32.290Z,100199.91
2023-01-18T18:53:00.682Z,100194.03
2023-01-18T18:55:28.641Z,100196.34
2023-01-18T18:57:56.803Z,100202.81
2023-01-18T19:00:25.554Z,100209.13
2023-01-18T19:02:58.674Z,100215.16
2023-01-18T19:05:26.943Z,100220.69
2023-01-18T19:07:54.702Z,100220.25
2023-01-18T19:10:24.186Z,100222.00
2023-01-18T19:12:51.931Z,100223.59
2023-01-18T19:15:19.685Z,100223.34
2023-01-18T19:17:49.688Z,100230.41
2023-01-18T19:20:20.576Z,100228.81
2023-01-18T19:22:48.361Z,100229.44
2023-01-18T19:25:16.970Z,100241.22
2023-01-18T19:27:45.229Z,100235.75
2023-01-18T19:30:18.614Z,100252.31
2023-01-18T19:32:47.631Z,100257.19
2023-01-18T19:35:16.328Z,100272.41
2023-01-18T19:37:45.683Z,100273.75
2023-01-18T19:40:17.347Z,100251.16
2023-01-18T19:42:47.037Z,100251.44
2023-01-18T19:45:23.156Z,100258.16
2023-01-18T19:47:55.811Z,100250.38
2023-01-18T19:50:23.682Z,100248.75
2023-01-18T19:52:53.507Z,100261.38
2023-01-18T19:55:22.123Z,100252.31
2023-01-18T19:57:50.962Z,100265.19
2023-01-18T20:00:19.709Z,100274.06
2023-01-18T20:02:47.500Z,100280.66
2023-01-18T20:05:15.788Z,100286.72
2023-01-18T20:07:43.578Z,100274.78
2023-01-18T20:10:13.063Z,100285.97
2023-01-18T20:12:40.818Z,100287.16
2023-01-18T20:15:09.230Z,100289.88
2023-01-18T20:17:37.034Z,100285.75
2023-01-18T20:20:05.351Z,100299.91
2023-01-18T20:22:33.065Z,100307.00
2023-01-18T20:25:00.944Z,100310.91
2023-01-18T20:27:30.027Z,100315.50
2023-01-18T20:29:58.263Z,100317.16
2023-01-18T20:32:26.150Z,100313.03
2023-01-18T20:34:53.975Z,100321.66
2023-01-18T20:37:21.760Z,100328.09
2023-01-18T20:39:50.244Z,100317.81
2023-01-18T20:42:18.419Z,100320.56
2023-01-18T20:44:50.237Z,100314.88
2023-01-18T20:47:18.106Z,100322.03
2023-01-18T20:49:46.987Z,100325.38
2023-01-18T20:52:14.818Z,100339.66
2023-01-18T20:54:42.531Z,100345.72
2023-01-18T20:57:10.594Z,100361.56
2023-01-18T20:59:38.297Z,100346.94
2023-01-18T21:02:07.839Z,100365.03
2023-01-18T21:04:35.834Z,100370.31
2023-01-18T21:07:03.551Z,100365.13
2023-01-18T21:09:31.304Z,100371.66
2023-01-18T21:11:59.571Z,100370.97
2023-01-18T21:14:27.319Z,100371.34
2023-01-18T21:16:55.207Z,100365.19
2023-01-18T21:19:24.436Z,100366.97
2023-01-18T21:21:52.191Z,100372.94
2023-01-18T21:24:19.881Z,100371.03
2023-01-18T21:26:47.704Z,100383.19
2023-01-18T21:29:15.483Z,100381.44
2023-01-18T21:31:43.358Z,100394.16
2023-01-18T21:34:11.308Z,100402.91
2023-01-18T21:36:40.411Z,100401.63
2023-01-18T21:39:08.154Z,100400.72
2023-01-18T21:41:53.235Z,100409.97
2023-01-18T21:44:38.487Z,100411.22
2023-01-18T21:47:06.303Z,100420.50
2023-01-18T21:50:15.914Z,100420.72
2023-01-18T21:52:58.401Z,100420.00
2023-01-18T21:55:26.134Z,100410.56
2023-01-18T21:58:07.780Z,100421.00
2023-01-18T22:00:38.714Z,100421.25
2023-01-18T22:03:06.869Z,100418.06
2023-01-18T22:05:34.769Z,100421.88
2023-01-18T22:08:03.858Z,100409.06
2023-01-18T22:10:31.720Z,100417.59
2023-01-18T22:12:59.457Z,100425.38
2023-01-18T22:15:27.207Z,100429.38
2023-01-18T22:17:54.947Z,100421.06
2023-01-18T22:20:22.724Z,100418.16
2023-01-18T22:22:50.550Z,100425.53
2023-01-18T22:25:19.835Z,100422.53
2023-01-18T22:27:47.586Z,100420.69
2023-01-18T22:30:15.476Z,100419.94
2023-01-18T22:32:43.259Z,100423.63
2023-01-18T22:35:11.335Z,100430.75
2023-01-18T22:37:39.099Z,100425.22
2023-01-18T22:40:08.575Z,100417.41
2023-01-18T22:42:37.778Z,100433.72
2023-01-18T22:45:06.253Z,100438.38
2023-01-18T22:47:34.020Z,100432.03
2023-01-18T22:50:01.754Z,100447.13
2023-01-18T22:52:29.554Z,100445.59
2023-01-18T22:54:57.389Z,100450.34
2023-01-18T22:57:25.123Z,100455.44
2023-01-18T22:59:54.220Z,100458.81
2023-01-18T23:02:22.032Z,100464.94
2023-01-18T23:04:49.823Z,100457.59
2023-01-18T23:07:17.645Z,100459.53
2023-01-18T23:09:45.427Z,100456.19
2023-01-18T23:12:13.247Z,100453.88
2023-01-18T23:14:58.345Z,100464.41
2023-01-18T23:17:39.763Z,100462.06
2023-01-18T23:20:10.334Z,100468.16
2023-01-18T23:22:38.526Z,100470.50
2023-01-18T23:25:07.075Z,100460.56
2023-01-18T23:27:35.324Z,100455.06
2023-01-18T23:30:03.521Z,100463.25
2023-01-18T23:32:32.841Z,100461.72
2023-01-18T23:35:01.232Z,100466.94
2023-01-18T23:37:29.428Z,100457.00
2023-01-18T23:40:15.053Z,100462.59
2023-01-18T23:43:00.505Z,100456.13
2023-01-18T23:45:45.862Z,100461.34
2023-01-18T23:48:34.752Z,100459.59
2023-01-18T23:51:20.634Z,100463.06
2023-01-18T23:54:05.758Z,100456.91
2023-01-18T23:56:33.723Z,100461.75
2023-01-18T23:59:02.384Z,100469.63
